Time;durP1;ratioP1;P1;durP2;ratioP2;P2;SDS_P1;SDS_P2;PMS_P1;PMS_P2;Temp;Humidity;BMP_temperature;BMP_pressure;BME280_temperature;BME280_humidity;BME280_pressure;Samples;Min_cycle;Max_cycle;Signal;HPM_P1;HPM_P2
2024/01/20 00:00:54;;;;;;;31.27;16.23;;;;;;;;;;5085016;28;20077;-67
2024/01/20 00:03:19;;;;;;;31.50;14.23;;;;;;;;;;5066670;28;20035;-65
2024/01/20 00:05:44;;;;;;;30.58;15.57;;;;;;;;;;5076122;28;20023;-66
2024/01/20 00:08:10;;;;;;;35.33;15.13;;;;;;;;;;5079812;28;20036;-65
2024/01/20 00:10:35;;;;;;;27.52;14.27;;;;;;;;;;5076841;28;20529;-67
2024/01/20 00:13:00;;;;;;;35.10;15.20;;;;;;;;;;5092920;28;20038;-66
2024/01/20 00:15:26;;;;;;;36.47;15.70;;;;;;;;;;5091987;28;20028;-66
2024/01/20 00:17:51;;;;;;;24.02;12.32;;;;;;;;;;5077579;28;20023;-66
2024/01/20 00:20:16;;;;;;;38.08;15.40;;;;;;;;;;5085216;28;20020;-65
2024/01/20 00:22:42;;;;;;;28.23;14.00;;;;;;;;;;5084210;28;20035;-67
2024/01/20 00:25:08;;;;;;;34.10;15.25;;;;;;;;;;5088659;28;20032;-66
2024/01/20 00:27:34;;;;;;;28.20;15.63;;;;;;;;;;5071937;28;20554;-65
2024/01/20 00:29:59;;;;;;;29.90;14.27;;;;;;;;;;5087641;28;20099;-66
2024/01/20 00:32:24;;;;;;;35.85;14.93;;;;;;;;;;5057164;28;20471;-65
2024/01/20 00:34:50;;;;;;;30.55;14.60;;;;;;;;;;5088516;28;20047;-66
2024/01/20 00:37:15;;;;;;;29.08;14.55;;;;;;;;;;5088950;28;20032;-66
2024/01/20 00:39:40;;;;;;;26.58;14.30;;;;;;;;;;5079311;28;20020;-66
2024/01/20 00:42:05;;;;;;;27.70;13.90;;;;;;;;;;5074705;28;20028;-66
2024/01/20 00:44:30;;;;;;;33.80;14.07;;;;;;;;;;5091690;28;20081;-66
2024/01/20 00:46:56;;;;;;;31.63;13.93;;;;;;;;;;5081575;28;20103;-66
2024/01/20 00:49:21;;;;;;;34.42;14.88;;;;;;;;;;5086316;28;20206;-65
2024/01/20 00:51:46;;;;;;;36.13;14.50;;;;;;;;;;5091355;28;20031;-65
2024/01/20 00:54:12;;;;;;;27.80;14.48;;;;;;;;;;5086947;28;20040;-66
2024/01/20 00:56:37;;;;;;;29.08;14.05;;;;;;;;;;5090949;28;20032;-65
2024/01/20 00:59:02;;;;;;;35.45;14.60;;;;;;;;;;5074739;28;20092;-67
2024/01/20 01:01:27;;;;;;;30.75;14.02;;;;;;;;;;5089852;28;20467;-67
2024/01/20 01:03:53;;;;;;;35.45;15.32;;;;;;;;;;5092036;28;20043;-65
2024/01/20 01:06:18;;;;;;;32.22;15.52;;;;;;;;;;5084198;28;20042;-66
2024/01/20 01:08:43;;;;;;;34.00;15.00;;;;;;;;;;5089878;28;20097;-66
2024/01/20 01:11:08;;;;;;;30.75;14.65;;;;;;;;;;5092286;28;20020;-65
2024/01/20 01:13:36;;;;;;;38.15;15.15;;;;;;;;;;5092613;28;20032;-66
2024/01/20 01:16:02;;;;;;;29.85;15.32;;;;;;;;;;5086965;28;20035;-65
2024/01/20 01:18:27;;;;;;;30.52;15.25;;;;;;;;;;5077341;28;20398;-66
2024/01/20 01:20:52;;;;;;;34.95;16.27;;;;;;;;;;5089169;28;20054;-65
2024/01/20 01:23:18;;;;;;;28.77;14.20;;;;;;;;;;5081811;28;20032;-65
2024/01/20 01:25:43;;;;;;;33.45;17.42;;;;;;;;;;5091255;28;20030;-66
2024/01/20 01:28:08;;;;;;;33.92;16.05;;;;;;;;;;5091398;28;20039;-66
2024/01/20 01:30:33;;;;;;;34.20;15.93;;;;;;;;;;5091925;28;20039;-65
2024/01/20 01:32:59;;;;;;;34.45;14.88;;;;;;;;;;5091384;28;20012;-65
2024/01/20 01:35:24;;;;;;;29.05;13.75;;;;;;;;;;5091596;28;20470;-65
2024/01/20 01:37:49;;;;;;;29.05;14.35;;;;;;;;;;5091963;28;20020;-67
2024/01/20 01:40:14;;;;;;;29.45;15.00;;;;;;;;;;5087221;28;20012;-65
2024/01/20 01:42:40;;;;;;;34.72;14.32;;;;;;;;;;5079774;28;20062;-65
2024/01/20 01:45:05;;;;;;;42.55;15.32;;;;;;;;;;5065212;28;20946;-65
2024/01/20 01:47:31;;;;;;;31.65;14.85;;;;;;;;;;5087548;28;20475;-65
2024/01/20 01:49:56;;;;;;;30.65;15.35;;;;;;;;;;5091952;28;20054;-65
2024/01/20 01:52:22;;;;;;;29.80;15.20;;;;;;;;;;5090992;28;20027;-66
2024/01/20 01:54:47;;;;;;;24.13;13.85;;;;;;;;;;5084862;28;20111;-65
2024/01/20 01:57:13;;;;;;;33.60;14.07;;;;;;;;;;5088352;28;20103;-66
2024/01/20 01:59:39;;;;;;;29.42;13.88;;;;;;;;;;5074945;28;20071;-66
2024/01/20 02:02:04;;;;;;;29.75;14.60;;;;;;;;;;5070675;28;20059;-66
2024/01/20 02:04:30;;;;;;;29.25;13.65;;;;;;;;;;5066358;28;20131;-66
2024/01/20 02:06:55;;;;;;;33.63;14.63;;;;;;;;;;5071363;28;20035;-66
2024/01/20 02:09:21;;;;;;;29.67;15.60;;;;;;;;;;5048624;28;20020;-66
2024/01/20 02:11:46;;;;;;;29.45;14.98;;;;;;;;;;5069692;28;20484;-65
2024/01/20 02:14:12;;;;;;;28.67;14.02;;;;;;;;;;5075765;28;20032;-65
2024/01/20 02:16:37;;;;;;;26.42;13.38;;;;;;;;;;5087230;28;20035;-65
2024/01/20 02:19:03;;;;;;;31.10;13.63;;;;;;;;;;5083214;28;20024;-65
2024/01/20 02:21:28;;;;;;;32.78;15.68;;;;;;;;;;5090541;28;20356;-65
2024/01/20 02:23:53;;;;;;;32.20;15.27;;;;;;;;;;5076599;28;20870;-65
2024/01/20 02:26:19;;;;;;;26.63;13.18;;;;;;;;;;5068166;28;20021;-65
2024/01/20 02:28:44;;;;;;;29.17;13.85;;;;;;;;;;5073847;28;20862;-67
2024/01/20 02:31:09;;;;;;;28.33;13.32;;;;;;;;;;5069222;28;20482;-65
2024/01/20 02:33:34;;;;;;;35.28;15.80;;;;;;;;;;5065429;28;20466;-65
2024/01/20 02:35:59;;;;;;;28.65;14.80;;;;;;;;;;5083463;28;20426;-65
2024/01/20 02:38:25;;;;;;;33.00;14.90;;;;;;;;;;5090727;28;20434;-65
2024/01/20 02:40:50;;;;;;;28.90;14.25;;;;;;;;;;5090869;28;20039;-66
2024/01/20 02:43:15;;;;;;;32.73;14.27;;;;;;;;;;5082680;28;20097;-65
2024/01/20 02:45:40;;;;;;;32.90;14.95;;;;;;;;;;5072530;28;20281;-65
2024/01/20 02:48:06;;;;;;;30.38;14.82;;;;;;;;;;5077989;28;20031;-66
2024/01/20 02:50:31;;;;;;;27.88;13.85;;;;;;;;;;5065075;28;20040;-65
2024/01/20 02:52:56;;;;;;;36.67;15.13;;;;;;;;;;5085387;28;20112;-65
2024/01/20 02:55:21;;;;;;;27.30;14.20;;;;;;;;;;5074396;28;20021;-66
2024/01/20 02:57:47;;;;;;;32.10;13.73;;;;;;;;;;5084303;28;20092;-65
2024/01/20 03:00:12;;;;;;;29.67;15.80;;;;;;;;;;5083979;28;20199;-64
2024/01/20 03:02:37;;;;;;;33.10;15.48;;;;;;;;;;5083683;28;20032;-65
2024/01/20 03:05:02;;;;;;;31.98;15.60;;;;;;;;;;5070389;28;20024;-65
2024/01/20 03:07:28;;;;;;;35.38;15.73;;;;;;;;;;5090163;28;20024;-65
2024/01/20 03:09:53;;;;;;;33.25;15.55;;;;;;;;;;5094035;28;20204;-65
2024/01/20 03:12:18;;;;;;;31.27;15.05;;;;;;;;;;5093516;28;20052;-65
2024/01/20 03:14:43;;;;;;;30.92;16.30;;;;;;;;;;5086647;28;20041;-65
2024/01/20 03:17:09;;;;;;;37.75;14.32;;;;;;;;;;5081383;28;20028;-64
2024/01/20 03:19:34;;;;;;;31.20;14.68;;;;;;;;;;5088959;28;20115;-65
2024/01/20 03:21:59;;;;;;;33.80;16.50;;;;;;;;;;5074415;28;20095;-65
2024/01/20 03:24:24;;;;;;;33.78;15.65;;;;;;;;;;5092737;28;20027;-65
2024/01/20 03:26:50;;;;;;;35.17;16.40;;;;;;;;;;5091984;28;20017;-64
2024/01/20 03:29:16;;;;;;;34.90;15.25;;;;;;;;;;5089062;28;20046;-66
2024/01/20 03:31:41;;;;;;;31.48;15.23;;;;;;;;;;5088993;28;20029;-65
2024/01/20 03:34:06;;;;;;;34.30;14.68;;;;;;;;;;5085779;28;20032;-67
2024/01/20 03:36:32;;;;;;;32.58;15.65;;;;;;;;;;5081595;28;20032;-65
2024/01/20 03:38:57;;;;;;;33.25;14.90;;;;;;;;;;5081375;28;20028;-66
2024/01/20 03:41:22;;;;;;;29.83;13.85;;;;;;;;;;5091564;28;20028;-66
2024/01/20 03:43:47;;;;;;;30.17;14.85;;;;;;;;;;5076636;28;20024;-66
2024/01/20 03:46:16;;;;;;;36.25;14.88;;;;;;;;;;5091960;28;20024;-66
2024/01/20 03:48:41;;;;;;;33.42;15.70;;;;;;;;;;5093568;28;20028;-66
2024/01/20 03:51:06;;;;;;;40.95;16.40;;;;;;;;;;5093216;28;20039;-65
2024/01/20 03:53:32;;;;;;;32.50;16.10;;;;;;;;;;5085111;28;20028;-66
2024/01/20 03:55:57;;;;;;;31.70;15.38;;;;;;;;;;5094035;28;20020;-67
2024/01/20 03:58:22;;;;;;;29.95;14.73;;;;;;;;;;5092882;28;20028;-66
2024/01/20 04:00:47;;;;;;;34.80;15.38;;;;;;;;;;5093576;28;20024;-65
2024/01/20 04:03:13;;;;;;;27.90;13.25;;;;;;;;;;5089177;28;20081;-65
2024/01/20 04:05:39;;;;;;;39.65;16.30;;;;;;;;;;5093875;28;20024;-66
2024/01/20 04:08:05;;;;;;;36.45;15.70;;;;;;;;;;5091903;28;20032;-65
2024/01/20 04:10:30;;;;;;;33.95;15.45;;;;;;;;;;5088209;28;20103;-65
2024/01/20 04:12:55;;;;;;;31.60;14.68;;;;;;;;;;5075710;28;20822;-65
2024/01/20 04:15:21;;;;;;;30.30;15.23;;;;;;;;;;5066963;28;20069;-65
2024/01/20 04:17:46;;;;;;;34.95;14.57;;;;;;;;;;5087195;28;20028;-66
2024/01/20 04:20:11;;;;;;;32.20;15.15;;;;;;;;;;5092360;28;20409;-65
2024/01/20 04:22:36;;;;;;;29.48;16.25;;;;;;;;;;5093089;28;20085;-65
2024/01/20 04:25:01;;;;;;;33.50;16.65;;;;;;;;;;5092059;28;20019;-65
2024/01/20 04:27:27;;;;;;;36.58;15.27;;;;;;;;;;5093109;28;20118;-65
2024/01/20 04:29:52;;;;;;;33.03;14.23;;;;;;;;;;5091704;28;20070;-67
2024/01/20 04:32:17;;;;;;;32.28;14.70;;;;;;;;;;5092791;28;20047;-65
2024/01/20 04:34:42;;;;;;;30.92;13.82;;;;;;;;;;5091637;28;20032;-66
2024/01/20 04:37:08;;;;;;;29.90;14.95;;;;;;;;;;5092216;28;20035;-65
2024/01/20 04:39:33;;;;;;;29.87;13.53;;;;;;;;;;5080118;28;20018;-64
2024/01/20 04:41:58;;;;;;;30.17;14.65;;;;;;;;;;5080165;28;20319;-65
2024/01/20 04:44:23;;;;;;;34.65;14.40;;;;;;;;;;5092887;28;20111;-65
2024/01/20 04:46:49;;;;;;;34.15;15.90;;;;;;;;;;5092801;28;20055;-66
2024/01/20 04:49:14;;;;;;;35.05;13.38;;;;;;;;;;5092682;28;20397;-67
2024/01/20 04:51:39;;;;;;;30.80;14.48;;;;;;;;;;5092074;28;20037;-66
2024/01/20 04:54:05;;;;;;;29.77;15.15;;;;;;;;;;5092019;28;20020;-66
2024/01/20 04:56:30;;;;;;;31.58;15.75;;;;;;;;;;5091776;28;20023;-67
2024/01/20 04:58:56;;;;;;;30.35;15.50;;;;;;;;;;5093080;28;20028;-66
2024/01/20 05:01:21;;;;;;;34.42;16.27;;;;;;;;;;5092700;28;20020;-67
2024/01/20 05:03:46;;;;;;;30.10;13.77;;;;;;;;;;5092501;28;20020;-67
2024/01/20 05:06:12;;;;;;;36.22;14.73;;;;;;;;;;5092593;28;20103;-67
2024/01/20 05:08:37;;;;;;;28.20;14.32;;;;;;;;;;5076428;28;20028;-67
2024/01/20 05:11:03;;;;;;;32.47;14.60;;;;;;;;;;5091668;28;20063;-67
2024/01/20 05:13:28;;;;;;;31.65;14.60;;;;;;;;;;5093163;28;20044;-67
2024/01/20 05:15:54;;;;;;;33.97;15.02;;;;;;;;;;5087490;28;20099;-67
2024/01/20 05:18:19;;;;;;;24.27;13.25;;;;;;;;;;5087302;28;20055;-66
2024/01/20 05:20:47;;;;;;;28.85;13.35;;;;;;;;;;5092968;28;20027;-67
2024/01/20 05:23:12;;;;;;;27.90;13.50;;;;;;;;;;5091895;28;20068;-67
2024/01/20 05:25:38;;;;;;;30.27;13.52;;;;;;;;;;5091405;28;20113;-67
2024/01/20 05:28:03;;;;;;;31.02;13.85;;;;;;;;;;5074122;28;20077;-67
2024/01/20 05:30:28;;;;;;;29.73;14.23;;;;;;;;;;5058864;28;20035;-67
2024/01/20 05:32:54;;;;;;;30.02;15.60;;;;;;;;;;5071707;28;20035;-67
2024/01/20 05:35:19;;;;;;;32.35;15.65;;;;;;;;;;5078606;28;20036;-67
2024/01/20 05:37:44;;;;;;;29.88;14.52;;;;;;;;;;5087537;28;20489;-67
2024/01/20 05:40:10;;;;;;;27.20;14.18;;;;;;;;;;5089326;28;20030;-67
2024/01/20 05:42:35;;;;;;;34.70;15.57;;;;;;;;;;5091712;28;20438;-67
2024/01/20 05:45:00;;;;;;;36.45;15.82;;;;;;;;;;5091376;28;20145;-67
2024/01/20 05:47:26;;;;;;;29.55;15.07;;;;;;;;;;5091935;28;20142;-67
2024/01/20 05:49:51;;;;;;;30.90;14.48;;;;;;;;;;5084359;28;20032;-66
2024/01/20 05:52:16;;;;;;;31.65;14.90;;;;;;;;;;5091551;28;20467;-66
2024/01/20 05:54:41;;;;;;;28.40;14.38;;;;;;;;;;5090805;28;20358;-66
2024/01/20 05:57:08;;;;;;;31.65;14.43;;;;;;;;;;5088417;28;20374;-66
2024/01/20 05:59:33;;;;;;;22.55;12.48;;;;;;;;;;5091238;28;20035;-66
2024/01/20 06:01:58;;;;;;;33.83;15.63;;;;;;;;;;5091381;28;20024;-66
2024/01/20 06:04:24;;;;;;;28.85;13.43;;;;;;;;;;5091397;28;20028;-65
2024/01/20 06:06:49;;;;;;;29.30;13.73;;;;;;;;;;5085448;28;20137;-65
2024/01/20 06:09:14;;;;;;;24.88;12.60;;;;;;;;;;5090954;28;20436;-66
2024/01/20 06:11:40;;;;;;;28.58;12.93;;;;;;;;;;5091172;28;20024;-66
2024/01/20 06:14:05;;;;;;;28.27;14.27;;;;;;;;;;5091343;28;20052;-66
2024/01/20 06:16:30;;;;;;;25.48;12.90;;;;;;;;;;5091219;28;20028;-66
2024/01/20 06:18:56;;;;;;;25.38;12.27;;;;;;;;;;5088434;28;20024;-66
2024/01/20 06:21:21;;;;;;;31.60;12.15;;;;;;;;;;5083733;28;20103;-66
2024/01/20 06:23:48;;;;;;;23.00;11.38;;;;;;;;;;5090250;28;20024;-65
2024/01/20 06:26:13;;;;;;;21.17;10.93;;;;;;;;;;5090525;28;20023;-66
2024/01/20 06:28:38;;;;;;;30.67;13.85;;;;;;;;;;5084577;28;20020;-65
2024/01/20 06:31:03;;;;;;;26.75;12.32;;;;;;;;;;5088134;28;20032;-66
2024/01/20 06:33:29;;;;;;;25.77;13.23;;;;;;;;;;5089967;28;20024;-66
2024/01/20 06:35:54;;;;;;;26.33;12.57;;;;;;;;;;5088603;28;20021;-65
2024/01/20 06:38:19;;;;;;;31.70;13.75;;;;;;;;;;5085332;28;20101;-66
2024/01/20 06:40:44;;;;;;;27.45;14.13;;;;;;;;;;5073756;28;20023;-66
2024/01/20 06:43:10;;;;;;;31.15;13.65;;;;;;;;;;5091283;28;20063;-66
2024/01/20 06:45:35;;;;;;;26.67;13.90;;;;;;;;;;5077642;28;20595;-66
2024/01/20 06:48:01;;;;;;;27.75;13.15;;;;;;;;;;5093280;28;20032;-66
2024/01/20 06:50:26;;;;;;;29.50;13.70;;;;;;;;;;5094904;28;20030;-66
2024/01/20 06:52:51;;;;;;;25.77;11.95;;;;;;;;;;5087101;28;20099;-66
2024/01/20 06:55:17;;;;;;;30.17;15.05;;;;;;;;;;5094523;28;20028;-66
2024/01/20 06:57:42;;;;;;;26.08;12.43;;;;;;;;;;5094401;28;20077;-65
2024/01/20 07:00:08;;;;;;;30.92;12.38;;;;;;;;;;5094654;28;20032;-65
2024/01/20 07:02:33;;;;;;;27.55;12.65;;;;;;;;;;5093873;28;20375;-66
2024/01/20 07:04:59;;;;;;;28.15;13.48;;;;;;;;;;5094194;28;20024;-66
2024/01/20 07:07:24;;;;;;;31.67;13.32;;;;;;;;;;5094069;28;20035;-65
2024/01/20 07:09:49;;;;;;;30.58;13.25;;;;;;;;;;5092991;28;20367;-66
2024/01/20 07:12:14;;;;;;;26.42;13.48;;;;;;;;;;5093538;28;20035;-66
2024/01/20 07:14:42;;;;;;;30.77;13.48;;;;;;;;;;5093321;28;20127;-66
2024/01/20 07:17:07;;;;;;;23.90;13.00;;;;;;;;;;5068056;28;20070;-66
2024/01/20 07:19:33;;;;;;;31.88;12.85;;;;;;;;;;5044535;28;20024;-66
2024/01/20 07:21:58;;;;;;;21.40;10.73;;;;;;;;;;5045766;28;20041;-66
2024/01/20 07:24:23;;;;;;;27.30;13.35;;;;;;;;;;5046262;28;20971;-66
2024/01/20 07:26:49;;;;;;;26.83;13.68;;;;;;;;;;5045400;28;20031;-66
2024/01/20 07:29:14;;;;;;;25.40;12.13;;;;;;;;;;5041121;28;20024;-65
2024/01/20 07:31:39;;;;;;;28.38;11.95;;;;;;;;;;5044548;28;20020;-66
2024/01/20 07:34:05;;;;;;;24.33;12.13;;;;;;;;;;5044894;28;20109;-66
2024/01/20 07:36:30;;;;;;;26.55;12.68;;;;;;;;;;5036452;28;20059;-65
2024/01/20 07:38:55;;;;;;;29.42;13.02;;;;;;;;;;5046164;28;20019;-66
2024/01/20 07:41:21;;;;;;;27.95;13.40;;;;;;;;;;5045807;28;20178;-66
2024/01/20 07:43:47;;;;;;;22.02;11.70;;;;;;;;;;5046176;28;20024;-66
2024/01/20 07:46:12;;;;;;;31.55;12.65;;;;;;;;;;5045511;28;20139;-66
2024/01/20 07:48:38;;;;;;;24.02;11.52;;;;;;;;;;5046328;28;20042;-66
2024/01/20 07:51:03;;;;;;;29.27;13.50;;;;;;;;;;5045847;28;20032;-66
2024/01/20 07:53:29;;;;;;;25.58;12.35;;;;;;;;;;5042621;28;20020;-66
2024/01/20 07:55:55;;;;;;;22.42;12.60;;;;;;;;;;5044444;28;20028;-65
2024/01/20 07:58:20;;;;;;;24.88;12.15;;;;;;;;;;5043589;28;20086;-64
2024/01/20 08:00:45;;;;;;;33.35;13.50;;;;;;;;;;5043074;28;20905;-65
2024/01/20 08:03:10;;;;;;;29.15;13.32;;;;;;;;;;5041869;28;20878;-65
2024/01/20 08:05:36;;;;;;;27.38;11.27;;;;;;;;;;5016250;28;20809;-65
2024/01/20 08:08:02;;;;;;;22.67;11.75;;;;;;;;;;5044963;28;20169;-65
2024/01/20 08:10:27;;;;;;;21.50;11.82;;;;;;;;;;5045631;28;20090;-66
2024/01/20 08:12:52;;;;;;;23.92;11.18;;;;;;;;;;5045613;28;21056;-66
2024/01/20 08:15:18;;;;;;;32.20;10.65;;;;;;;;;;5044709;28;20874;-65
2024/01/20 08:17:43;;;;;;;29.45;12.32;;;;;;;;;;5045125;28;20089;-66
2024/01/20 08:20:09;;;;;;;25.38;11.32;;;;;;;;;;5045084;28;20836;-66
2024/01/20 08:22:34;;;;;;;32.83;11.07;;;;;;;;;;5041849;28;20032;-66
2024/01/20 08:25:02;;;;;;;19.08;10.48;;;;;;;;;;5040034;28;20127;-66
2024/01/20 08:27:28;;;;;;;24.80;10.80;;;;;;;;;;5043628;28;20139;-66
2024/01/20 08:29:53;;;;;;;25.38;11.63;;;;;;;;;;5044702;28;20017;-66
2024/01/20 08:32:18;;;;;;;17.88;10.05;;;;;;;;;;5044362;28;20012;-66
2024/01/20 08:34:43;;;;;;;26.42;10.77;;;;;;;;;;5046937;28;20040;-66
2024/01/20 08:37:09;;;;;;;21.83;10.65;;;;;;;;;;5046253;28;20016;-66
2024/01/20 08:39:34;;;;;;;25.42;8.85;;;;;;;;;;5045865;28;20121;-66
2024/01/20 08:41:59;;;;;;;28.75;10.60;;;;;;;;;;5046190;28;20811;-66
2024/01/20 08:44:24;;;;;;;32.70;10.38;;;;;;;;;;5044170;28;20943;-66
2024/01/20 08:46:49;;;;;;;19.20;9.10;;;;;;;;;;5032414;28;20031;-66
2024/01/20 08:49:15;;;;;;;20.60;10.25;;;;;;;;;;5041698;28;20032;-66
2024/01/20 08:51:40;;;;;;;20.35;10.05;;;;;;;;;;5043695;28;20047;-66
2024/01/20 08:54:05;;;;;;;22.30;10.52;;;;;;;;;;5043952;28;20028;-67
2024/01/20 08:56:31;;;;;;;15.43;9.13;;;;;;;;;;5044137;28;20024;-66
2024/01/20 08:58:56;;;;;;;19.25;9.75;;;;;;;;;;5045118;28;20016;-66
2024/01/20 09:01:21;;;;;;;28.75;10.15;;;;;;;;;;5045325;28;20846;-66
2024/01/20 09:03:46;;;;;;;19.48;9.13;;;;;;;;;;5044388;28;21002;-66
2024/01/20 09:06:12;;;;;;;19.05;8.85;;;;;;;;;;5045046;28;20899;-66
2024/01/20 09:08:37;;;;;;;17.10;9.52;;;;;;;;;;5044282;28;20952;-67
2024/01/20 09:11:03;;;;;;;16.80;9.00;;;;;;;;;;5041300;28;20036;-66
2024/01/20 09:13:28;;;;;;;18.15;10.38;;;;;;;;;;5040857;28;20063;-66
2024/01/20 09:15:54;;;;;;;22.42;9.35;;;;;;;;;;5043646;28;20032;-66
2024/01/20 09:18:19;;;;;;;19.73;9.82;;;;;;;;;;5043121;28;20070;-66
2024/01/20 09:20:45;;;;;;;19.85;10.32;;;;;;;;;;5043033;28;20037;-66
2024/01/20 09:23:11;;;;;;;22.38;11.13;;;;;;;;;;5043134;28;20972;-66
2024/01/20 09:25:36;;;;;;;18.20;9.50;;;;;;;;;;5033463;28;20029;-66
2024/01/20 09:28:03;;;;;;;20.75;10.48;;;;;;;;;;5043337;28;20028;-66
2024/01/20 09:30:29;;;;;;;18.85;9.70;;;;;;;;;;5044443;28;20032;-66
2024/01/20 09:32:54;;;;;;;18.77;10.10;;;;;;;;;;5046122;28;20016;-66
2024/01/20 09:35:19;;;;;;;20.60;10.07;;;;;;;;;;5044737;28;20857;-66
2024/01/20 09:37:44;;;;;;;19.13;11.05;;;;;;;;;;5044122;28;20895;-66
2024/01/20 09:40:10;;;;;;;21.35;10.65;;;;;;;;;;5044612;28;20943;-66
2024/01/20 09:42:35;;;;;;;16.25;9.65;;;;;;;;;;5043920;28;20039;-66
2024/01/20 09:45:02;;;;;;;17.88;9.70;;;;;;;;;;5042473;28;20863;-66
2024/01/20 09:47:27;;;;;;;16.30;10.93;;;;;;;;;;5044726;28;20840;-66
2024/01/20 09:49:53;;;;;;;18.20;9.90;;;;;;;;;;5041814;28;20127;-66
2024/01/20 09:52:28;;;;;;;18.33;9.35;;;;;;;;;;5046433;28;20851;-66
2024/01/20 09:55:12;;;;;;;19.02;9.73;;;;;;;;;;5044038;28;20209;-66
2024/01/20 09:57:38;;;;;;;20.63;9.45;;;;;;;;;;5045562;28;20028;-66
2024/01/20 10:00:04;;;;;;;13.38;8.85;;;;;;;;;;5044380;28;20028;-66
2024/01/20 10:02:32;;;;;;;16.05;9.52;;;;;;;;;;5046437;28;20031;-65
2024/01/20 10:05:01;;;;;;;18.38;9.95;;;;;;;;;;5039238;28;20226;-67
2024/01/20 10:07:29;;;;;;;17.27;9.95;;;;;;;;;;5043955;28;20060;-64
2024/01/20 10:09:55;;;;;;;16.10;8.55;;;;;;;;;;5043606;28;20023;-64
2024/01/20 10:12:20;;;;;;;14.13;8.52;;;;;;;;;;5036507;28;20055;-64
2024/01/20 10:14:45;;;;;;;14.90;8.82;;;;;;;;;;5044868;28;20131;-65
2024/01/20 10:17:10;;;;;;;13.20;8.10;;;;;;;;;;5042929;28;20035;-65
2024/01/20 10:19:38;;;;;;;16.73;8.25;;;;;;;;;;5043031;28;20023;-65
2024/01/20 10:22:06;;;;;;;19.65;9.07;;;;;;;;;;5044025;28;20878;-65
2024/01/20 10:24:32;;;;;;;16.20;8.30;;;;;;;;;;5044573;28;20023;-66
2024/01/20 10:26:58;;;;;;;14.88;7.90;;;;;;;;;;5042702;28;20131;-65
2024/01/20 10:29:24;;;;;;;15.93;8.68;;;;;;;;;;5043554;28;20031;-65
2024/01/20 10:31:51;;;;;;;15.80;8.38;;;;;;;;;;5033429;28;20060;-65
2024/01/20 10:34:16;;;;;;;15.00;8.40;;;;;;;;;;5043532;28;20886;-65
2024/01/20 10:36:44;;;;;;;17.50;9.10;;;;;;;;;;5042096;28;20036;-65
2024/01/20 10:39:10;;;;;;;12.48;7.13;;;;;;;;;;5043444;28;20028;-65
2024/01/20 10:41:39;;;;;;;21.05;8.02;;;;;;;;;;5025774;28;20854;-66
2024/01/20 10:44:05;;;;;;;13.40;7.80;;;;;;;;;;5041543;28;21591;-64
2024/01/20 10:46:33;;;;;;;17.33;8.07;;;;;;;;;;5041762;28;20055;-64
2024/01/20 10:49:00;;;;;;;16.33;8.30;;;;;;;;;;5042555;28;20866;-65
2024/01/20 10:51:28;;;;;;;14.07;7.25;;;;;;;;;;5042042;28;20066;-65
2024/01/20 10:53:57;;;;;;;16.45;8.55;;;;;;;;;;5042913;28;20032;-65
2024/01/20 10:56:24;;;;;;;13.25;6.20;;;;;;;;;;5043881;28;20020;-65
2024/01/20 10:59:12;;;;;;;10.35;6.55;;;;;;;;;;5043903;28;20034;-67
2024/01/20 11:01:38;;;;;;;13.35;6.60;;;;;;;;;;5030869;28;20169;-67
2024/01/20 11:04:04;;;;;;;14.45;6.93;;;;;;;;;;5042480;28;20036;-65
2024/01/20 11:06:29;;;;;;;10.50;6.25;;;;;;;;;;5044471;28;20074;-67
2024/01/20 11:08:54;;;;;;;10.75;6.53;;;;;;;;;;5043187;28;20852;-65
2024/01/20 11:11:26;;;;;;;13.57;6.35;;;;;;;;;;5042301;28;20035;-65
2024/01/20 11:13:52;;;;;;;11.57;6.35;;;;;;;;;;5042754;28;20503;-67
2024/01/20 11:16:20;;;;;;;9.88;6.20;;;;;;;;;;5045709;28;20020;-65
2024/01/20 11:18:47;;;;;;;13.50;6.53;;;;;;;;;;5023771;28;20915;-66
2024/01/20 11:21:16;;;;;;;11.05;6.57;;;;;;;;;;5044749;28;20038;-65
2024/01/20 11:23:46;;;;;;;13.00;6.35;;;;;;;;;;5039477;28;20020;-65
2024/01/20 11:26:12;;;;;;;15.90;7.00;;;;;;;;;;5040713;28;20023;-64
2024/01/20 11:28:37;;;;;;;15.63;7.78;;;;;;;;;;5042956;28;20024;-65
2024/01/20 11:31:05;;;;;;;15.65;8.85;;;;;;;;;;5045618;28;20063;-64
2024/01/20 11:33:31;;;;;;;16.20;7.47;;;;;;;;;;5046673;28;20074;-67
2024/01/20 11:35:56;;;;;;;12.40;7.72;;;;;;;;;;5047188;28;20945;-64
2024/01/20 11:38:21;;;;;;;12.10;6.40;;;;;;;;;;5044695;28;20047;-64
2024/01/20 11:40:56;;;;;;;11.38;6.47;;;;;;;;;;5044515;28;20020;-66
2024/01/20 11:43:21;;;;;;;9.43;5.28;;;;;;;;;;5044629;28;20123;-66
2024/01/20 11:45:47;;;;;;;14.73;6.97;;;;;;;;;;5046127;28;20024;-65
2024/01/20 11:48:15;;;;;;;11.77;6.70;;;;;;;;;;5038735;28;20028;-64
2024/01/20 11:50:40;;;;;;;11.45;6.18;;;;;;;;;;5047033;28;20075;-65
2024/01/20 11:53:05;;;;;;;11.65;6.28;;;;;;;;;;5044431;28;20869;-64
2024/01/20 11:55:30;;;;;;;9.25;6.07;;;;;;;;;;5045595;28;20778;-65
2024/01/20 11:57:56;;;;;;;11.10;5.72;;;;;;;;;;5026853;28;20024;-65
2024/01/20 12:00:21;;;;;;;11.30;5.85;;;;;;;;;;5045238;28;20887;-65
2024/01/20 12:02:47;;;;;;;10.38;5.65;;;;;;;;;;5046666;28;20028;-65
2024/01/20 12:05:13;;;;;;;9.77;5.65;;;;;;;;;;5044525;28;20151;-65
2024/01/20 12:07:38;;;;;;;10.40;5.95;;;;;;;;;;5046787;28;20771;-65
2024/01/20 12:10:03;;;;;;;13.20;6.82;;;;;;;;;;5046958;28;20028;-65
2024/01/20 12:12:29;;;;;;;9.80;5.88;;;;;;;;;;5047306;28;20024;-65
2024/01/20 12:14:55;;;;;;;12.68;6.25;;;;;;;;;;5047560;28;20047;-65
2024/01/20 12:17:22;;;;;;;10.07;5.78;;;;;;;;;;5043264;28;20028;-65
2024/01/20 12:19:47;;;;;;;11.48;6.35;;;;;;;;;;5039667;28;20817;-65
2024/01/20 12:22:14;;;;;;;14.45;6.38;;;;;;;;;;5047859;28;20034;-65
2024/01/20 12:24:44;;;;;;;10.73;6.82;;;;;;;;;;5045790;28;20977;-65
2024/01/20 12:27:09;;;;;;;11.30;6.45;;;;;;;;;;5023702;28;20034;-65
2024/01/20 12:29:35;;;;;;;12.60;6.80;;;;;;;;;;5046026;28;20024;-65
2024/01/20 12:32:00;;;;;;;11.40;6.57;;;;;;;;;;5046026;28;20817;-64
2024/01/20 12:34:26;;;;;;;15.40;6.95;;;;;;;;;;5043560;28;21161;-65
2024/01/20 12:36:54;;;;;;;14.30;5.93;;;;;;;;;;5032532;28;21334;-65
2024/01/20 12:39:19;;;;;;;13.77;6.78;;;;;;;;;;5046844;28;20024;-65
2024/01/20 12:41:45;;;;;;;10.48;6.10;;;;;;;;;;5044387;28;20058;-65
2024/01/20 12:44:10;;;;;;;11.48;7.18;;;;;;;;;;5045278;28;20028;-65
2024/01/20 12:46:35;;;;;;;10.88;6.75;;;;;;;;;;5043637;28;20864;-65
2024/01/20 12:49:01;;;;;;;11.20;6.45;;;;;;;;;;5045453;28;20088;-65
2024/01/20 12:51:26;;;;;;;12.13;6.30;;;;;;;;;;5045830;28;20085;-65
2024/01/20 12:53:51;;;;;;;10.27;5.85;;;;;;;;;;5045363;28;20020;-65
2024/01/20 12:56:17;;;;;;;9.70;6.15;;;;;;;;;;5045573;28;20059;-66
2024/01/20 12:58:42;;;;;;;12.40;5.82;;;;;;;;;;5042271;28;20020;-65
2024/01/20 13:01:07;;;;;;;8.77;5.53;;;;;;;;;;5045299;28;20030;-65
2024/01/20 13:03:33;;;;;;;11.03;4.97;;;;;;;;;;5044404;28;20533;-65
2024/01/20 13:05:58;;;;;;;9.15;5.35;;;;;;;;;;5044751;28;20266;-65
2024/01/20 13:08:23;;;;;;;11.15;6.82;;;;;;;;;;5044492;28;20810;-65
2024/01/20 13:10:50;;;;;;;9.07;5.57;;;;;;;;;;5045554;28;20857;-65
2024/01/20 13:13:15;;;;;;;9.50;5.40;;;;;;;;;;5045191;28;20281;-65
2024/01/20 13:15:41;;;;;;;11.85;6.32;;;;;;;;;;5044508;28;20020;-65
2024/01/20 13:18:06;;;;;;;12.18;6.22;;;;;;;;;;5044922;28;20024;-65
2024/01/20 13:20:31;;;;;;;10.75;5.40;;;;;;;;;;5044927;28;20071;-65
2024/01/20 13:22:56;;;;;;;16.00;6.50;;;;;;;;;;5044817;28;20858;-66
2024/01/20 13:25:32;;;;;;;10.77;5.93;;;;;;;;;;5044355;28;21218;-66
2024/01/20 13:27:58;;;;;;;14.00;6.80;;;;;;;;;;5046545;28;20061;-65
2024/01/20 13:30:23;;;;;;;10.32;5.60;;;;;;;;;;5045754;28;20080;-66
2024/01/20 13:32:54;;;;;;;14.70;5.90;;;;;;;;;;5046707;28;20936;-67
2024/01/20 13:35:24;;;;;;;11.65;6.03;;;;;;;;;;5039212;28;20101;-66
2024/01/20 13:37:52;;;;;;;11.32;5.95;;;;;;;;;;5026072;28;20143;-66
2024/01/20 13:40:17;;;;;;;14.05;6.40;;;;;;;;;;5044824;28;20027;-65
2024/01/20 13:42:42;;;;;;;12.18;6.50;;;;;;;;;;5044307;28;20083;-67
2024/01/20 13:45:08;;;;;;;12.65;7.38;;;;;;;;;;5045972;28;20806;-65
2024/01/20 13:47:34;;;;;;;18.92;8.93;;;;;;;;;;5043182;28;20031;-65
2024/01/20 13:49:59;;;;;;;15.52;8.65;;;;;;;;;;5043465;28;20020;-65
2024/01/20 13:52:24;;;;;;;49.85;22.77;;;;;;;;;;5040870;28;20862;-66
2024/01/20 13:54:50;;;;;;;25.20;11.88;;;;;;;;;;5042121;28;20028;-67
2024/01/20 13:57:21;;;;;;;13.18;7.63;;;;;;;;;;5045837;28;20028;-68
2024/01/20 13:59:46;;;;;;;12.05;6.65;;;;;;;;;;5045157;28;20736;-66
2024/01/20 14:02:12;;;;;;;15.32;9.80;;;;;;;;;;5047683;28;20035;-66
2024/01/20 14:04:40;;;;;;;11.90;7.28;;;;;;;;;;5045923;28;20043;-66
2024/01/20 14:07:06;;;;;;;25.90;12.07;;;;;;;;;;5043034;28;20059;-66
2024/01/20 14:09:32;;;;;;;46.75;21.80;;;;;;;;;;5044190;28;20841;-67
2024/01/20 14:11:57;;;;;;;12.70;7.38;;;;;;;;;;5046445;28;20016;-66